Time;durP1;ratioP1;P1;durP2;ratioP2;P2;SDS_P1;SDS_P2;PMS_P1;PMS_P2;Temp;Humidity;BMP_temperature;BMP_pressure;BME280_temperature;BME280_humidity;BME280_pressure;Samples;Min_cycle;Max_cycle;Signal;HPM_P1;HPM_P2
2022/01/08 00:00:09;;;;;;;4.57;4.13;;;;;;;;;;5038681;28;20226;-90
2022/01/08 00:02:37;;;;;;;3.90;3.60;;;;;;;;;;5042450;28;20286;-90
2022/01/08 00:05:04;;;;;;;4.13;3.73;;;;;;;;;;5037785;28;20241;-90
2022/01/08 00:07:32;;;;;;;3.80;3.40;;;;;;;;;;5037477;28;20195;-89
2022/01/08 00:09:59;;;;;;;3.13;2.93;;;;;;;;;;5040171;28;20563;-90
2022/01/08 00:12:28;;;;;;;3.50;3.20;;;;;;;;;;5038425;28;20198;-90
2022/01/08 00:14:55;;;;;;;3.17;2.90;;;;;;;;;;5039788;28;20202;-90
2022/01/08 00:17:23;;;;;;;2.60;2.40;;;;;;;;;;5036213;28;20230;-91
2022/01/08 00:19:51;;;;;;;3.23;2.93;;;;;;;;;;5036490;28;20286;-90
2022/01/08 00:22:19;;;;;;;3.10;2.90;;;;;;;;;;5058258;28;20247;-90
2022/01/08 00:24:47;;;;;;;2.70;2.50;;;;;;;;;;5061031;28;20250;-90
2022/01/08 00:27:14;;;;;;;3.23;2.93;;;;;;;;;;5060933;28;20198;-90
2022/01/08 00:29:43;;;;;;;3.90;3.60;;;;;;;;;;5060193;28;20258;-89
2022/01/08 00:32:10;;;;;;;3.40;3.10;;;;;;;;;;5060842;28;20183;-88
2022/01/08 00:34:38;;;;;;;3.73;3.37;;;;;;;;;;5060966;28;20182;-90
2022/01/08 00:37:06;;;;;;;2.97;2.77;;;;;;;;;;5060690;28;20218;-90
2022/01/08 00:39:33;;;;;;;3.57;3.27;;;;;;;;;;5060885;28;20175;-90
2022/01/08 00:42:01;;;;;;;3.80;3.50;;;;;;;;;;5060682;28;20187;-90
2022/01/08 00:44:29;;;;;;;3.00;2.80;;;;;;;;;;5060712;28;20175;-88
2022/01/08 00:46:58;;;;;;;3.67;3.37;;;;;;;;;;5060642;28;20170;-91
2022/01/08 00:49:25;;;;;;;3.30;3.00;;;;;;;;;;5060491;28;20206;-89
2022/01/08 00:51:53;;;;;;;3.37;2.97;;;;;;;;;;5060496;28;20179;-90
2022/01/08 00:54:20;;;;;;;3.50;3.20;;;;;;;;;;5060451;28;20194;-90
2022/01/08 00:56:48;;;;;;;2.77;2.57;;;;;;;;;;5060631;28;20225;-90
2022/01/08 00:59:16;;;;;;;2.97;2.67;;;;;;;;;;5060473;28;20171;-90
2022/01/08 01:01:43;;;;;;;2.83;2.50;;;;;;;;;;5060299;28;20201;-91
2022/01/08 01:04:12;;;;;;;3.17;2.67;;;;;;;;;;5060279;28;20183;-91
2022/01/08 01:06:39;;;;;;;2.97;2.67;;;;;;;;;;5060372;28;20198;-90
2022/01/08 01:09:07;;;;;;;2.57;2.37;;;;;;;;;;5060070;28;20185;-90
2022/01/08 01:11:34;;;;;;;2.67;2.47;;;;;;;;;;5060169;28;20250;-90
2022/01/08 01:14:01;;;;;;;2.93;2.73;;;;;;;;;;5045564;28;20195;-91
2022/01/08 01:16:29;;;;;;;3.03;2.73;;;;;;;;;;5041309;28;20285;-92
2022/01/08 01:18:58;;;;;;;3.40;3.10;;;;;;;;;;5038072;28;20258;-91
2022/01/08 01:21:27;;;;;;;3.30;3.00;;;;;;;;;;5037098;28;20577;-91
2022/01/08 01:23:55;;;;;;;2.70;2.50;;;;;;;;;;5037123;28;20610;-90
2022/01/08 01:26:26;;;;;;;2.70;2.50;;;;;;;;;;5036329;28;20199;-91
2022/01/08 01:28:58;;;;;;;2.70;2.50;;;;;;;;;;5037626;28;20206;-91
2022/01/08 01:42:41;;;;;;;2.43;2.00;;;;;;;;;;5035968;28;20182;-91
2022/01/08 01:47:56;;;;;;;2.10;2.00;;;;;;;;;;5034340;28;20229;-91
2022/01/08 01:50:23;;;;;;;2.07;1.97;;;;;;;;;;5035628;28;20264;-91
2022/01/08 01:52:52;;;;;;;1.50;1.40;;;;;;;;;;5034414;28;20258;-90
2022/01/08 01:55:20;;;;;;;0.80;0.80;;;;;;;;;;5034339;28;20230;-91
2022/01/08 01:57:48;;;;;;;0.67;0.67;;;;;;;;;;5034243;28;20228;-91
2022/01/08 02:00:16;;;;;;;0.50;0.50;;;;;;;;;;5033668;28;20206;-90
2022/01/08 02:02:43;;;;;;;1.10;1.10;;;;;;;;;;5035021;28;20290;-91
2022/01/08 02:05:11;;;;;;;0.90;0.90;;;;;;;;;;5035307;28;20203;-91
2022/01/08 02:07:38;;;;;;;0.40;0.40;;;;;;;;;;5034625;28;20221;-91
2022/01/08 02:10:09;;;;;;;0.40;0.40;;;;;;;;;;5034419;28;20209;-91
2022/01/08 02:12:36;;;;;;;1.17;1.00;;;;;;;;;;5035028;28;20187;-90
2022/01/08 02:15:04;;;;;;;0.53;0.33;;;;;;;;;;5035062;28;20205;-90
2022/01/08 02:17:32;;;;;;;0.60;0.60;;;;;;;;;;5033568;28;20240;-90
2022/01/08 02:20:00;;;;;;;0.60;0.30;;;;;;;;;;5033993;28;20293;-91
2022/01/08 02:22:28;;;;;;;0.30;0.30;;;;;;;;;;5033567;28;20209;-91
2022/01/08 02:24:55;;;;;;;1.27;0.50;;;;;;;;;;5033296;28;20770;-91
2022/01/08 02:27:23;;;;;;;0.40;0.40;;;;;;;;;;5033371;28;20667;-91
2022/01/08 02:29:51;;;;;;;0.30;0.30;;;;;;;;;;5033600;28;20203;-91
2022/01/08 02:32:19;;;;;;;0.37;0.37;;;;;;;;;;5033528;28;20194;-91
2022/01/08 02:34:48;;;;;;;0.47;0.40;;;;;;;;;;5035669;28;20224;-90
2022/01/08 02:37:19;;;;;;;0.60;0.60;;;;;;;;;;5033685;28;20261;-90
2022/01/08 02:39:49;;;;;;;0.40;0.40;;;;;;;;;;5033332;28;20257;-89
2022/01/08 02:42:19;;;;;;;0.40;0.40;;;;;;;;;;5033438;28;20218;-89
2022/01/08 02:44:46;;;;;;;0.20;0.20;;;;;;;;;;5034073;28;20286;-88
2022/01/08 02:47:14;;;;;;;0.23;0.23;;;;;;;;;;5033185;28;20213;-89
2022/01/08 02:49:42;;;;;;;0.60;0.40;;;;;;;;;;5034795;28;20205;-88
2022/01/08 02:52:09;;;;;;;0.53;0.53;;;;;;;;;;5033546;28;20253;-87
2022/01/08 02:54:38;;;;;;;0.43;0.40;;;;;;;;;;5032745;28;20233;-89
2022/01/08 02:57:06;;;;;;;0.30;0.30;;;;;;;;;;5033051;28;20199;-87
2022/01/08 02:59:34;;;;;;;0.30;0.30;;;;;;;;;;5035266;28;20227;-84
2022/01/08 03:02:01;;;;;;;0.37;0.37;;;;;;;;;;5035499;28;20592;-88
2022/01/08 03:04:28;;;;;;;0.30;0.30;;;;;;;;;;5033415;28;20224;-88
2022/01/08 03:06:56;;;;;;;0.40;0.40;;;;;;;;;;5033050;28;20694;-87
2022/01/08 03:09:23;;;;;;;0.10;0.10;;;;;;;;;;5033196;28;20282;-87
2022/01/08 03:11:52;;;;;;;1.50;0.60;;;;;;;;;;5032494;28;20240;-87
2022/01/08 03:14:19;;;;;;;0.37;0.30;;;;;;;;;;5032457;28;20250;-86
2022/01/08 03:16:46;;;;;;;0.20;0.20;;;;;;;;;;5033548;28;20198;-86
2022/01/08 03:19:15;;;;;;;0.30;0.30;;;;;;;;;;5032898;28;20227;-84
2022/01/08 03:21:45;;;;;;;0.33;0.33;;;;;;;;;;5033550;28;20201;-87
2022/01/08 03:24:17;;;;;;;0.40;0.40;;;;;;;;;;5032628;28;20259;-87
2022/01/08 03:26:44;;;;;;;0.33;0.33;;;;;;;;;;5032581;28;20193;-87
2022/01/08 03:29:13;;;;;;;0.20;0.20;;;;;;;;;;5033087;28;20278;-87
2022/01/08 03:31:40;;;;;;;0.30;0.30;;;;;;;;;;5032621;28;20282;-87
2022/01/08 03:34:08;;;;;;;0.40;0.40;;;;;;;;;;5032464;28;20673;-87
2022/01/08 03:36:35;;;;;;;0.40;0.37;;;;;;;;;;5032565;28;20199;-87
2022/01/08 03:39:02;;;;;;;0.50;0.50;;;;;;;;;;5032651;28;20623;-87
2022/01/08 03:41:30;;;;;;;0.40;0.40;;;;;;;;;;5032981;28;20293;-86
2022/01/08 03:43:58;;;;;;;0.50;0.50;;;;;;;;;;5032300;28;20195;-87
2022/01/08 03:46:29;;;;;;;0.50;0.50;;;;;;;;;;5032678;28;20199;-87
2022/01/08 03:49:17;;;;;;;0.50;0.50;;;;;;;;;;5033373;28;20193;-86
2022/01/08 03:51:45;;;;;;;0.57;0.57;;;;;;;;;;5033352;28;20187;-87
2022/01/08 03:54:13;;;;;;;0.40;0.40;;;;;;;;;;5032663;28;20281;-87
2022/01/08 03:56:40;;;;;;;0.40;0.40;;;;;;;;;;5034400;28;20195;-87
2022/01/08 03:59:07;;;;;;;0.47;0.47;;;;;;;;;;5035541;28;20313;-88
2022/01/08 04:01:36;;;;;;;0.50;0.50;;;;;;;;;;5035624;28;20227;-87
2022/01/08 04:04:04;;;;;;;0.40;0.40;;;;;;;;;;5035390;28;20178;-86
2022/01/08 04:06:31;;;;;;;0.30;0.30;;;;;;;;;;5036010;28;20202;-88
2022/01/08 04:08:58;;;;;;;0.60;0.60;;;;;;;;;;5036413;28;20209;-87
2022/01/08 04:11:26;;;;;;;0.50;0.50;;;;;;;;;;5036535;28;20229;-87
2022/01/08 04:13:54;;;;;;;0.50;0.50;;;;;;;;;;5036481;28;20670;-86
2022/01/08 04:16:28;;;;;;;0.50;0.50;;;;;;;;;;5036223;28;20191;-91
2022/01/08 04:18:56;;;;;;;0.70;0.70;;;;;;;;;;5035777;28;20685;-88
2022/01/08 04:24:09;;;;;;;0.87;0.80;;;;;;;;;;5034666;28;20194;-88
2022/01/08 04:26:36;;;;;;;0.60;0.60;;;;;;;;;;5036021;28;20210;-89
2022/01/08 04:29:06;;;;;;;0.70;0.70;;;;;;;;;;5035555;28;20278;-88
2022/01/08 04:31:33;;;;;;;0.50;0.50;;;;;;;;;;5037037;28;20230;-86
2022/01/08 04:34:02;;;;;;;0.50;0.50;;;;;;;;;;5034894;28;20583;-86
2022/01/08 04:36:29;;;;;;;0.70;0.70;;;;;;;;;;5035042;28;20589;-86
2022/01/08 04:38:56;;;;;;;0.30;0.30;;;;;;;;;;5034722;28;20782;-88
2022/01/08 04:41:24;;;;;;;0.80;0.80;;;;;;;;;;5035009;28;20206;-86
2022/01/08 04:43:51;;;;;;;0.77;0.77;;;;;;;;;;5034633;28;20212;-87
2022/01/08 04:46:18;;;;;;;0.60;0.60;;;;;;;;;;5034719;28;20638;-87
2022/01/08 04:48:45;;;;;;;1.50;1.40;;;;;;;;;;5034620;28;20774;-86
2022/01/08 04:51:14;;;;;;;2.63;2.43;;;;;;;;;;5034565;28;20290;-87
2022/01/08 04:53:41;;;;;;;3.17;2.97;;;;;;;;;;5034894;28;20241;-87
2022/01/08 04:56:09;;;;;;;1.60;1.50;;;;;;;;;;5034928;28;20305;-88
2022/01/08 04:58:36;;;;;;;1.80;1.70;;;;;;;;;;5034674;28;20225;-86
2022/01/08 05:01:03;;;;;;;2.33;2.20;;;;;;;;;;5034778;28;20671;-87
2022/01/08 05:03:30;;;;;;;3.63;3.33;;;;;;;;;;5035001;28;20203;-87
2022/01/08 05:05:57;;;;;;;3.80;3.50;;;;;;;;;;5034678;28;20198;-87
2022/01/08 05:08:26;;;;;;;3.17;2.97;;;;;;;;;;5034927;28;20278;-87
2022/01/08 05:10:53;;;;;;;2.10;2.00;;;;;;;;;;5034422;28;20195;-86
2022/01/08 05:13:21;;;;;;;1.63;1.53;;;;;;;;;;5035740;28;20241;-87
2022/01/08 05:15:48;;;;;;;1.67;1.57;;;;;;;;;;5034210;28;20194;-87
2022/01/08 05:21:16;;;;;;;3.40;2.20;;;;;;;;;;5032746;28;20261;-86
2022/01/08 05:23:45;;;;;;;4.30;3.90;;;;;;;;;;5035083;28;20190;-86
2022/01/08 05:26:12;;;;;;;7.20;6.50;;;;;;;;;;5034300;28;20244;-86
2022/01/08 05:28:40;;;;;;;5.33;4.83;;;;;;;;;;5034538;28;20249;-87
2022/01/08 05:31:07;;;;;;;5.13;4.60;;;;;;;;;;5034961;28;20202;-86
2022/01/08 05:33:34;;;;;;;13.53;10.50;;;;;;;;;;5034069;28;20285;-86
2022/01/08 05:36:02;;;;;;;10.37;9.37;;;;;;;;;;5034064;28;20206;-86
2022/01/08 05:38:29;;;;;;;4.97;4.47;;;;;;;;;;5034480;28;20330;-86
2022/01/08 05:40:58;;;;;;;4.70;4.30;;;;;;;;;;5034280;28;20242;-86
2022/01/08 05:43:26;;;;;;;8.53;7.13;;;;;;;;;;5035050;28;20663;-86
2022/01/08 05:45:53;;;;;;;9.43;7.70;;;;;;;;;;5034152;28;20663;-86
2022/01/08 05:48:21;;;;;;;4.23;3.13;;;;;;;;;;5034417;28;20194;-85
2022/01/08 05:50:49;;;;;;;2.20;2.03;;;;;;;;;;5034400;28;20679;-86
2022/01/08 05:53:17;;;;;;;4.57;4.17;;;;;;;;;;5031404;28;20671;-86
2022/01/08 05:55:44;;;;;;;1.53;1.43;;;;;;;;;;5033805;28;20269;-86
2022/01/08 05:58:13;;;;;;;1.40;1.30;;;;;;;;;;5033889;28;20273;-86
2022/01/08 06:00:40;;;;;;;1.63;1.53;;;;;;;;;;5033930;28;20199;-86
2022/01/08 06:03:09;;;;;;;2.07;1.97;;;;;;;;;;5025015;28;20686;-86
2022/01/08 06:05:36;;;;;;;3.67;3.27;;;;;;;;;;5034853;28;20293;-87
2022/01/08 06:08:03;;;;;;;1.60;1.50;;;;;;;;;;5034642;28;20198;-86
2022/01/08 06:10:31;;;;;;;5.10;2.70;;;;;;;;;;5034563;28;20285;-86
2022/01/08 06:12:58;;;;;;;3.23;2.93;;;;;;;;;;5033770;28;20206;-86
2022/01/08 06:15:27;;;;;;;2.30;2.10;;;;;;;;;;5034631;28;20671;-86
2022/01/08 06:17:54;;;;;;;2.20;2.10;;;;;;;;;;5033671;28;20284;-86
2022/01/08 06:20:21;;;;;;;3.63;2.00;;;;;;;;;;5032689;28;20218;-86
2022/01/08 06:22:49;;;;;;;3.30;3.00;;;;;;;;;;5033536;28;20199;-87
2022/01/08 06:25:16;;;;;;;2.60;2.40;;;;;;;;;;5033895;28;20205;-86
2022/01/08 06:27:43;;;;;;;1.30;1.20;;;;;;;;;;5032592;28;20195;-86
2022/01/08 06:30:11;;;;;;;1.40;1.30;;;;;;;;;;5033506;28;20581;-86
2022/01/08 06:32:40;;;;;;;2.60;2.40;;;;;;;;;;5032761;28;20238;-86
2022/01/08 06:35:08;;;;;;;2.60;2.40;;;;;;;;;;5032731;28;20199;-86
2022/01/08 06:37:35;;;;;;;16.13;12.70;;;;;;;;;;5032659;28;20289;-87
2022/01/08 06:40:02;;;;;;;7.03;5.07;;;;;;;;;;5033577;28;20222;-87
2022/01/08 06:42:30;;;;;;;3.07;2.77;;;;;;;;;;5032784;28;20286;-86
2022/01/08 06:44:57;;;;;;;3.70;2.83;;;;;;;;;;5032526;28;20293;-86
2022/01/08 06:47:24;;;;;;;3.60;3.30;;;;;;;;;;5032841;28;20198;-87
2022/01/08 06:49:53;;;;;;;3.07;2.47;;;;;;;;;;5032681;28;20199;-86
2022/01/08 06:52:20;;;;;;;2.20;2.00;;;;;;;;;;5032716;28;20574;-86
2022/01/08 06:54:48;;;;;;;2.07;1.83;;;;;;;;;;5032639;28;20194;-87
2022/01/08 06:57:15;;;;;;;2.80;2.60;;;;;;;;;;5032701;28;20582;-86
2022/01/08 06:59:42;;;;;;;2.90;2.70;;;;;;;;;;5032594;28;20590;-86
2022/01/08 07:46:43;;;;;;;5.40;4.90;;;;;;;;;;5172826;27;20536;-88
2022/01/08 07:49:10;;;;;;;4.27;3.87;;;;;;;;;;5172425;27;20186;-88
2022/01/08 07:51:37;;;;;;;6.70;6.10;;;;;;;;;;5172809;27;20232;-88
2022/01/08 07:54:04;;;;;;;5.77;5.27;;;;;;;;;;5172191;27;20193;-88
2022/01/08 07:56:34;;;;;;;3.30;3.10;;;;;;;;;;5172635;27;20200;-88
2022/01/08 07:59:01;;;;;;;3.17;2.87;;;;;;;;;;5172430;27;20272;-88
2022/01/08 08:01:29;;;;;;;11.10;9.87;;;;;;;;;;5172295;27;20250;-88
2022/01/08 08:03:57;;;;;;;4.90;4.50;;;;;;;;;;5172520;27;20585;-88
2022/01/08 08:06:25;;;;;;;6.40;5.77;;;;;;;;;;5172343;27;20200;-88
2022/01/08 08:08:52;;;;;;;3.10;2.80;;;;;;;;;;5172065;27;20246;-88
2022/01/08 08:11:19;;;;;;;4.13;3.00;;;;;;;;;;5172024;27;20185;-87
2022/01/08 08:13:47;;;;;;;3.90;3.60;;;;;;;;;;5172001;27;20726;-88
2022/01/08 08:16:14;;;;;;;9.10;8.07;;;;;;;;;;5171957;27;20294;-87
2022/01/08 08:18:42;;;;;;;12.60;10.03;;;;;;;;;;5171767;27;20280;-88
2022/01/08 08:21:10;;;;;;;13.40;9.27;;;;;;;;;;5171653;27;20205;-88
2022/01/08 08:23:37;;;;;;;9.93;8.93;;;;;;;;;;5171846;27;20186;-87
2022/01/08 08:26:05;;;;;;;19.93;12.70;;;;;;;;;;5171682;27;20284;-87
2022/01/08 08:28:32;;;;;;;13.23;10.47;;;;;;;;;;5171592;27;20284;-88
2022/01/08 08:30:59;;;;;;;4.83;4.33;;;;;;;;;;5171526;27;20236;-88
2022/01/08 08:33:27;;;;;;;10.10;8.27;;;;;;;;;;5171424;27;20722;-88
2022/01/08 08:35:54;;;;;;;2.73;2.47;;;;;;;;;;5171197;27;20712;-87
2022/01/08 08:38:22;;;;;;;7.27;6.57;;;;;;;;;;5171403;27;20196;-88
2022/01/08 08:40:51;;;;;;;3.53;3.23;;;;;;;;;;5171495;27;20198;-88
2022/01/08 08:43:19;;;;;;;2.37;2.27;;;;;;;;;;5169470;27;20205;-87
2022/01/08 08:45:47;;;;;;;12.00;10.20;;;;;;;;;;5168064;27;20262;-88
2022/01/08 08:48:15;;;;;;;5.27;4.77;;;;;;;;;;5157422;27;20246;-88
2022/01/08 08:50:42;;;;;;;5.20;4.70;;;;;;;;;;5157347;27;20741;-88
2022/01/08 08:53:10;;;;;;;2.00;1.90;;;;;;;;;;5136284;27;20289;-88
2022/01/08 08:55:39;;;;;;;6.27;5.10;;;;;;;;;;5136426;27;20218;-87
2022/01/08 08:58:06;;;;;;;4.57;4.17;;;;;;;;;;5136297;27;20783;-87
2022/01/08 09:00:33;;;;;;;6.20;5.23;;;;;;;;;;5136218;27;20195;-87
2022/01/08 09:03:01;;;;;;;4.27;3.87;;;;;;;;;;5136395;27;20578;-87
2022/01/08 09:05:28;;;;;;;2.73;2.53;;;;;;;;;;5136621;27;20631;-89
2022/01/08 09:07:55;;;;;;;3.40;3.17;;;;;;;;;;5136369;27;20197;-89
2022/01/08 09:10:25;;;;;;;4.50;4.10;;;;;;;;;;5136377;27;20281;-89
2022/01/08 09:12:54;;;;;;;3.93;3.63;;;;;;;;;;5136081;27;20247;-88
2022/01/08 09:15:24;;;;;;;3.47;3.17;;;;;;;;;;5135870;27;20314;-88
2022/01/08 09:17:52;;;;;;;4.30;3.90;;;;;;;;;;5135789;27;20248;-87
2022/01/08 09:20:20;;;;;;;2.90;2.70;;;;;;;;;;5135876;27;20202;-88
2022/01/08 09:22:47;;;;;;;2.27;2.07;;;;;;;;;;5150653;27;20201;-87
2022/01/08 09:25:14;;;;;;;3.17;2.97;;;;;;;;;;5156817;27;20213;-89
2022/01/08 09:27:42;;;;;;;2.87;2.67;;;;;;;;;;5156865;27;20182;-88
2022/01/08 09:30:10;;;;;;;10.13;8.67;;;;;;;;;;5156609;27;20193;-88
2022/01/08 09:32:38;;;;;;;6.20;5.60;;;;;;;;;;5156900;27;20570;-88
2022/01/08 09:35:06;;;;;;;7.77;6.97;;;;;;;;;;5156302;27;20217;-88
2022/01/08 09:37:37;;;;;;;13.93;12.53;;;;;;;;;;5156458;27;20201;-89
2022/01/08 09:40:05;;;;;;;9.53;8.63;;;;;;;;;;5156682;27;20293;-89
2022/01/08 09:42:33;;;;;;;8.67;7.80;;;;;;;;;;5156069;27;20193;-88
2022/01/08 09:45:00;;;;;;;6.67;6.07;;;;;;;;;;5155979;27;20226;-88
2022/01/08 09:47:28;;;;;;;8.37;7.57;;;;;;;;;;5156190;27;20669;-88
2022/01/08 09:49:56;;;;;;;5.13;4.63;;;;;;;;;;5156084;27;20194;-88
2022/01/08 09:52:23;;;;;;;5.97;5.40;;;;;;;;;;5146239;27;20214;-87
2022/01/08 09:54:51;;;;;;;3.70;3.40;;;;;;;;;;5135453;27;20604;-87
2022/01/08 09:57:18;;;;;;;6.90;6.30;;;;;;;;;;5134625;27;20196;-87
2022/01/08 09:59:45;;;;;;;6.10;5.50;;;;;;;;;;5134405;27;20202;-87
2022/01/08 10:02:12;;;;;;;10.47;9.53;;;;;;;;;;5135069;27;20194;-88
2022/01/08 10:04:41;;;;;;;6.87;6.27;;;;;;;;;;5135208;27;20213;-88
2022/01/08 10:07:19;;;;;;;4.30;3.90;;;;;;;;;;5135230;27;20273;-88
2022/01/08 10:10:04;;;;;;;8.00;7.23;;;;;;;;;;5134779;27;20193;-88
2022/01/08 10:12:54;;;;;;;5.67;5.27;;;;;;;;;;5135202;27;20538;-88
2022/01/08 10:18:11;;;;;;;3.93;3.63;;;;;;;;;;5134938;27;20172;-88
2022/01/08 10:20:43;;;;;;;5.87;5.30;;;;;;;;;;5134893;27;20198;-88
2022/01/08 10:23:15;;;;;;;5.80;5.30;;;;;;;;;;5135185;27;20272;-88
2022/01/08 10:25:43;;;;;;;5.37;4.93;;;;;;;;;;5134725;27;20279;-87
2022/01/08 10:28:11;;;;;;;3.77;3.50;;;;;;;;;;5134427;27;20198;-88
2022/01/08 10:30:38;;;;;;;4.00;3.70;;;;;;;;;;5134785;27;20191;-88
2022/01/08 10:33:05;;;;;;;4.60;4.20;;;;;;;;;;5134430;27;20201;-88
2022/01/08 10:36:15;;;;;;;;;;;;;;;;;;;;;
2022/01/08 10:38:43;;;;;;;5.67;5.10;;;;;;;;;;5134529;27;20585;-88
2022/01/08 10:41:15;;;;;;;4.43;4.03;;;;;;;;;;5134434;27;20277;-87
2022/01/08 10:43:42;;;;;;;5.03;4.53;;;;;;;;;;5134236;27;20689;-87
2022/01/08 10:46:11;;;;;;;5.73;5.23;;;;;;;;;;5134014;27;20322;-87
2022/01/08 10:48:39;;;;;;;5.77;5.27;;;;;;;;;;5134686;27;20206;-88
2022/01/08 10:51:26;;;;;;;11.70;10.60;;;;;;;;;;5134189;27;20199;-87
2022/01/08 10:54:00;;;;;;;5.00;4.53;;;;;;;;;;5134043;27;20179;-88
2022/01/08 10:56:29;;;;;;;8.63;7.93;;;;;;;;;;5134138;27;20202;-88
2022/01/08 10:59:01;;;;;;;13.27;12.07;;;;;;;;;;5134217;27;20222;-87
2022/01/08 11:01:47;;;;;;;12.10;11.03;;;;;;;;;;5134187;27;20195;-87
2022/01/08 11:04:16;;;;;;;6.30;5.70;;;;;;;;;;5134245;27;20626;-88
2022/01/08 11:06:59;;;;;;;8.37;7.57;;;;;;;;;;5133983;27;20201;-87
2022/01/08 11:09:27;;;;;;;3.70;2.90;;;;;;;;;;5133687;27;20194;-87
2022/01/08 11:11:55;;;;;;;9.87;8.97;;;;;;;;;;5133976;27;20201;-87
2022/01/08 11:17:14;;;;;;;13.00;11.87;;;;;;;;;;5133833;27;20685;-87
2022/01/08 11:19:44;;;;;;;6.43;5.93;;;;;;;;;;5133983;27;20194;-88
2022/01/08 11:22:14;;;;;;;7.20;6.53;;;;;;;;;;5133990;27;20230;-88
2022/01/08 11:24:48;;;;;;;5.40;4.90;;;;;;;;;;5133979;27;20175;-88
2022/01/08 11:27:15;;;;;;;6.33;5.33;;;;;;;;;;5134335;27;20566;-88
2022/01/08 11:29:43;;;;;;;6.77;6.20;;;;;;;;;;5133693;27;20230;-88
2022/01/08 11:32:10;;;;;;;8.07;7.27;;;;;;;;;;5133517;27;20195;-88
2022/01/08 11:34:41;;;;;;;9.13;8.23;;;;;;;;;;5133523;27;20222;-87
2022/01/08 11:37:08;;;;;;;11.23;10.03;;;;;;;;;;5133479;27;20721;-88
2022/01/08 11:39:37;;;;;;;9.77;7.67;;;;;;;;;;5143545;27;20281;-88
2022/01/08 11:42:05;;;;;;;16.37;13.80;;;;;;;;;;5154557;27;20208;-87
2022/01/08 11:44:35;;;;;;;37.50;20.00;;;;;;;;;;5153616;27;20284;-87
2022/01/08 11:47:03;;;;;;;10.13;7.70;;;;;;;;;;5153927;27;20175;-87
2022/01/08 11:49:30;;;;;;;15.80;11.90;;;;;;;;;;5154302;27;20204;-87
2022/01/08 11:52:16;;;;;;;16.80;14.87;;;;;;;;;;5154144;27;20250;-87
2022/01/08 11:54:46;;;;;;;20.30;18.27;;;;;;;;;;5154080;27;20178;-87
2022/01/08 11:57:19;;;;;;;12.77;11.50;;;;;;;;;;5153835;27;20722;-87
2022/01/08 11:59:47;;;;;;;10.30;9.37;;;;;;;;;;5153922;27;20194;-87
2022/01/08 12:02:15;;;;;;;7.20;6.60;;;;;;;;;;5153535;27;20193;-87
2022/01/08 12:04:44;;;;;;;6.13;5.63;;;;;;;;;;5153970;27;20190;-87
2022/01/08 12:07:33;;;;;;;4.70;4.37;;;;;;;;;;5154015;27;20624;-87
2022/01/08 12:10:19;;;;;;;18.20;16.30;;;;;;;;;;5153689;27;20222;-87
2022/01/08 12:12:59;;;;;;;6.17;5.67;;;;;;;;;;5153890;27;20213;-87
2022/01/08 12:15:50;;;;;;;10.63;9.53;;;;;;;;;;5153935;27;20185;-87
2022/01/08 12:18:20;;;;;;;12.47;11.20;;;;;;;;;;5153525;27;20194;-87
2022/01/08 12:20:49;;;;;;;13.23;11.70;;;;;;;;;;5153853;27;20281;-86
2022/01/08 12:23:27;;;;;;;13.73;11.63;;;;;;;;;;5157730;27;20573;-86
2022/01/08 12:25:56;;;;;;;39.30;26.93;;;;;;;;;;5157762;27;20208;-85
2022/01/08 12:28:53;;;;;;;18.83;15.97;;;;;;;;;;5157404;27;20284;-87
2022/01/08 12:31:25;;;;;;;39.03;35.00;;;;;;;;;;5157370;27;20197;-87
2022/01/08 12:34:43;;;;;;;35.93;27.07;;;;;;;;;;5157419;27;20217;-86
2022/01/08 12:37:12;;;;;;;30.20;21.40;;;;;;;;;;5157104;27;20198;-87
2022/01/08 12:39:50;;;;;;;31.43;21.97;;;;;;;;;;5156927;27;20293;-86
2022/01/08 12:42:42;;;;;;;27.13;24.43;;;;;;;;;;5157407;27;20209;-87
2022/01/08 12:45:13;;;;;;;17.80;16.10;;;;;;;;;;5156889;27;20717;-87
2022/01/08 12:47:46;;;;;;;25.50;23.07;;;;;;;;;;5157266;27;20536;-87
2022/01/08 12:50:25;;;;;;;15.63;14.10;;;;;;;;;;5157135;27;20606;-86
2022/01/08 12:53:22;;;;;;;13.97;12.57;;;;;;;;;;5157189;27;20182;-87
2022/01/08 12:56:11;;;;;;;18.53;16.50;;;;;;;;;;5156827;27;20690;-87
2022/01/08 12:58:48;;;;;;;21.73;19.73;;;;;;;;;;5156994;27;20284;-86
2022/01/08 13:01:17;;;;;;;12.23;11.00;;;;;;;;;;5156992;27;20280;-87
2022/01/08 13:03:45;;;;;;;9.43;8.43;;;;;;;;;;5157018;27;20202;-87
2022/01/08 13:06:36;;;;;;;24.00;20.03;;;;;;;;;;5156912;27;20658;-86
2022/01/08 13:09:07;;;;;;;13.40;11.97;;;;;;;;;;5141011;27;20573;-87
2022/01/08 13:11:36;;;;;;;51.67;34.23;;;;;;;;;;5156656;27;20186;-87
2022/01/08 13:14:06;;;;;;;30.40;26.43;;;;;;;;;;5156399;27;20230;-87
2022/01/08 13:16:36;;;;;;;11.33;9.87;;;;;;;;;;5156303;27;20221;-86
2022/01/08 13:19:05;;;;;;;24.00;21.53;;;;;;;;;;5156960;27;20534;-87
2022/01/08 13:21:35;;;;;;;24.13;20.37;;;;;;;;;;5156325;27;20190;-87
2022/01/08 13:24:03;;;;;;;31.07;26.27;;;;;;;;;;5156307;27;20208;-87
2022/01/08 13:26:34;;;;;;;24.63;22.03;;;;;;;;;;5150665;27;20197;-86
2022/01/08 13:29:04;;;;;;;19.70;18.00;;;;;;;;;;5139110;27;20573;-86
2022/01/08 13:31:42;;;;;;;17.43;15.77;;;;;;;;;;5149871;27;20198;-87
2022/01/08 13:34:09;;;;;;;31.20;28.00;;;;;;;;;;5156133;27;20669;-87
2022/01/08 13:36:37;;;;;;;27.43;24.67;;;;;;;;;;5155914;27;20228;-87
2022/01/08 13:39:04;;;;;;;33.43;30.03;;;;;;;;;;5155949;27;20197;-86
2022/01/08 13:41:34;;;;;;;45.00;40.13;;;;;;;;;;5155807;27;20289;-87
2022/01/08 13:44:05;;;;;;;32.43;29.33;;;;;;;;;;5156275;27;20190;-87
2022/01/08 13:46:37;;;;;;;27.53;25.03;;;;;;;;;;5146722;27;20215;-86
2022/01/08 13:49:08;;;;;;;24.10;21.90;;;;;;;;;;5144588;27;20620;-87
2022/01/08 13:51:37;;;;;;;15.37;13.87;;;;;;;;;;5146207;27;20187;-86
2022/01/08 13:54:06;;;;;;;18.33;16.70;;;;;;;;;;5137927;27;20195;-86
2022/01/08 13:56:34;;;;;;;17.33;15.83;;;;;;;;;;5134107;27;20229;-85
2022/01/08 13:59:11;;;;;;;18.90;17.17;;;;;;;;;;5134434;27;20228;-86
2022/01/08 14:01:43;;;;;;;33.87;30.40;;;;;;;;;;5135129;27;20193;-87
2022/01/08 14:04:11;;;;;;;16.07;14.53;;;;;;;;;;5135124;27;20585;-86
2022/01/08 14:06:40;;;;;;;13.57;12.43;;;;;;;;;;5135087;27;20690;-87
2022/01/08 14:09:08;;;;;;;14.97;13.57;;;;;;;;;;5134642;27;20199;-87
2022/01/08 14:11:36;;;;;;;17.30;15.50;;;;;;;;;;5134928;27;20194;-87
2022/01/08 14:14:04;;;;;;;13.63;12.33;;;;;;;;;;5134565;27;20191;-87
2022/01/08 14:16:34;;;;;;;21.33;19.33;;;;;;;;;;5137435;27;20325;-87
2022/01/08 14:19:09;;;;;;;15.37;14.07;;;;;;;;;;5155564;27;20217;-87
2022/01/08 14:21:37;;;;;;;7.37;6.77;;;;;;;;;;5155412;27;20193;-87
2022/01/08 14:24:18;;;;;;;21.97;19.87;;;;;;;;;;5155325;27;20198;-87
2022/01/08 14:27:03;;;;;;;14.90;13.40;;;;;;;;;;5155087;27;20186;-87
2022/01/08 14:29:31;;;;;;;17.83;16.23;;;;;;;;;;5155282;27;20229;-87
2022/01/08 14:32:02;;;;;;;23.87;21.50;;;;;;;;;;5155464;27;20622;-87
2022/01/08 14:34:29;;;;;;;17.37;15.67;;;;;;;;;;5155241;27;20539;-87
2022/01/08 14:36:58;;;;;;;10.93;9.93;;;;;;;;;;5155024;27;20237;-87
2022/01/08 14:39:40;;;;;;;44.90;40.27;;;;;;;;;;5155175;27;20205;-87
2022/01/08 14:42:09;;;;;;;27.13;24.43;;;;;;;;;;5155347;27;20235;-87
2022/01/08 14:44:39;;;;;;;27.80;24.93;;;;;;;;;;5154177;27;20236;-88
2022/01/08 14:47:08;;;;;;;13.40;12.20;;;;;;;;;;5154810;27;20174;-87
2022/01/08 14:49:35;;;;;;;16.97;15.27;;;;;;;;;;5154707;27;20200;-87
2022/01/08 14:52:02;;;;;;;23.67;21.23;;;;;;;;;;5154449;27;20236;-87
2022/01/08 14:54:31;;;;;;;18.93;17.03;;;;;;;;;;5144850;27;20199;-87
2022/01/08 14:56:59;;;;;;;7.93;7.13;;;;;;;;;;5133724;27;20218;-87
2022/01/08 14:59:26;;;;;;;13.33;12.10;;;;;;;;;;5134206;27;20195;-87
2022/01/08 15:01:54;;;;;;;14.90;13.50;;;;;;;;;;5133725;27;20190;-87
2022/01/08 15:04:23;;;;;;;10.53;9.57;;;;;;;;;;5133831;27;20194;-88
2022/01/08 15:06:53;;;;;;;6.33;5.80;;;;;;;;;;5133837;27;20593;-87
2022/01/08 15:09:24;;;;;;;6.17;5.50;;;;;;;;;;5149385;27;20205;-87
2022/01/08 15:12:28;;;;;;;;;;;;;;;;;;;;;
2022/01/08 15:15:29;;;;;;;5.40;4.90;;;;;;;;;;5133731;27;20693;-88
2022/01/08 15:18:14;;;;;;;7.40;6.70;;;;;;;;;;5108325;27;20229;-88
2022/01/08 15:20:44;;;;;;;10.87;8.40;;;;;;;;;;5133994;27;20283;-86
2022/01/08 15:23:12;;;;;;;11.50;10.20;;;;;;;;;;5136226;27;20194;-87
2022/01/08 15:25:39;;;;;;;11.97;10.73;;;;;;;;;;5144040;27;20741;-86
2022/01/08 15:28:06;;;;;;;15.87;12.77;;;;;;;;;;5143472;27;20567;-87
2022/01/08 15:30:34;;;;;;;15.13;13.00;;;;;;;;;;5148506;27;20198;-86
2022/01/08 15:33:02;;;;;;;16.60;14.40;;;;;;;;;;5145783;27;20650;-86
2022/01/08 15:35:29;;;;;;;22.40;18.87;;;;;;;;;;5145517;27;20186;-88
2022/01/08 15:37:58;;;;;;;17.27;15.57;;;;;;;;;;5148028;27;20207;-86
2022/01/08 15:40:25;;;;;;;13.60;12.43;;;;;;;;;;5144992;27;20191;-87
2022/01/08 15:42:53;;;;;;;11.03;8.27;;;;;;;;;;5154037;27;20201;-86
2022/01/08 15:45:20;;;;;;;7.00;6.40;;;;;;;;;;5153531;27;20328;-86
2022/01/08 15:47:48;;;;;;;7.57;6.87;;;;;;;;;;5153838;27;20610;-87
2022/01/08 15:50:16;;;;;;;8.00;7.30;;;;;;;;;;5154168;27;20198;-87
2022/01/08 15:52:43;;;;;;;7.37;6.77;;;;;;;;;;5142785;27;20202;-87
2022/01/08 15:55:12;;;;;;;8.50;7.70;;;;;;;;;;5153634;27;20284;-86
2022/01/08 15:57:39;;;;;;;9.53;7.93;;;;;;;;;;5157040;27;20213;-86
2022/01/08 16:00:08;;;;;;;9.67;8.77;;;;;;;;;;5157376;27;20205;-86
2022/01/08 16:02:35;;;;;;;11.83;10.47;;;;;;;;;;5158145;27;20545;-88